Time;durP1;ratioP1;P1;durP2;ratioP2;P2;SDS_P1;SDS_P2;PMS_P1;PMS_P2;Temp;Humidity;BMP_temperature;BMP_pressure;BME280_temperature;BME280_humidity;BME280_pressure;Samples;Min_cycle;Max_cycle;Signal;HPM_P1;HPM_P2
2021/05/01 00:02:18;;;;;;;8.95;7.07;;;;;;;11.86;66.22;98575.13;5061745;28;20044;-62
2021/05/01 00:04:43;;;;;;;11.18;8.05;;;;;;;11.80;65.92;98545.41;5064596;28;20383;-60
2021/05/01 00:07:09;;;;;;;10.10;8.18;;;;;;;12.11;65.76;98598.50;5055285;28;20124;-59
2021/05/01 00:09:34;;;;;;;9.82;8.05;;;;;;;12.06;65.98;98583.72;5067662;28;20094;-60
2021/05/01 00:12:00;;;;;;;9.45;8.23;;;;;;;12.17;66.05;98601.38;5053018;28;20444;-59
2021/05/01 00:14:26;;;;;;;9.48;7.97;;;;;;;12.10;65.74;98586.94;5061760;28;20025;-61
2021/05/01 00:16:53;;;;;;;10.38;8.20;;;;;;;12.06;65.84;98577.53;5056815;28;20037;-59
2021/05/01 00:19:19;;;;;;;10.00;8.05;;;;;;;11.91;65.82;98545.94;5067740;28;20127;-60
2021/05/01 00:21:44;;;;;;;10.25;8.07;;;;;;;12.14;66.37;98593.66;5056220;28;20166;-57
2021/05/01 00:24:10;;;;;;;10.43;8.57;;;;;;;11.88;66.33;98550.78;5062507;28;20111;-60
2021/05/01 00:26:35;;;;;;;9.70;8.35;;;;;;;11.83;66.28;98543.25;5063193;28;20036;-56
2021/05/01 00:29:09;;;;;;;9.68;8.27;;;;;;;12.22;66.10;98606.25;5054917;28;20561;-60
2021/05/01 00:31:35;;;;;;;10.70;8.38;;;;;;;12.23;66.10;98613.28;5067322;28;20072;-59
2021/05/01 00:34:10;;;;;;;9.32;7.80;;;;;;;12.19;66.12;98620.81;5059965;28;20033;-59
2021/05/01 00:36:36;;;;;;;12.45;8.20;;;;;;;12.17;65.98;98613.94;5058530;28;20045;-57
2021/05/01 00:39:02;;;;;;;10.45;8.48;;;;;;;12.11;65.55;98631.53;5067024;28;20604;-59
2021/05/01 00:41:28;;;;;;;10.38;7.38;;;;;;;11.92;65.78;98609.31;5054189;28;20857;-59
2021/05/01 00:43:53;;;;;;;12.60;7.85;;;;;;;12.00;65.44;98624.59;5064699;28;20541;-59
2021/05/01 00:46:20;;;;;;;9.68;7.95;;;;;;;11.95;65.39;98628.78;5059508;28;20040;-59
2021/05/01 00:48:46;;;;;;;8.93;7.15;;;;;;;11.93;65.32;98623.56;5057059;28;20099;-59
2021/05/01 00:51:11;;;;;;;9.70;7.72;;;;;;;11.91;65.16;98625.56;5067806;28;20111;-57
2021/05/01 00:53:38;;;;;;;9.00;7.65;;;;;;;11.92;64.99;98643.34;5054467;28;20025;-60
2021/05/01 00:56:05;;;;;;;9.30;7.95;;;;;;;11.86;64.96;98639.47;5063166;28;20029;-58
2021/05/01 00:58:30;;;;;;;9.30;7.55;;;;;;;11.79;65.26;98638.41;5061931;28;20039;-60
2021/05/01 01:01:16;;;;;;;8.05;7.25;;;;;;;11.72;65.12;98637.38;5055428;28;20419;-57
2021/05/01 01:03:43;;;;;;;9.70;7.80;;;;;;;11.75;64.72;98637.91;5040067;28;20098;-60
2021/05/01 01:06:09;;;;;;;8.80;7.68;;;;;;;11.67;64.54;98639.72;5062252;28;20065;-59
2021/05/01 01:08:34;;;;;;;10.85;7.80;;;;;;;11.55;64.52;98637.31;5062255;28;20140;-60
2021/05/01 01:11:00;;;;;;;9.95;7.75;;;;;;;11.56;64.66;98649.69;5055076;28;20043;-60
2021/05/01 01:13:26;;;;;;;8.18;7.00;;;;;;;11.42;64.54;98651.13;5054229;28;20104;-60
2021/05/01 01:15:51;;;;;;;10.15;6.53;;;;;;;11.51;64.19;98657.38;5064498;28;20033;-56
2021/05/01 01:18:17;;;;;;;7.55;6.60;;;;;;;11.45;63.80;98666.94;5059599;28;20388;-59
2021/05/01 01:20:43;;;;;;;9.73;7.07;;;;;;;11.43;63.81;98666.22;5057044;28;20029;-63
2021/05/01 01:23:09;;;;;;;7.22;6.38;;;;;;;11.39;63.88;98658.66;5067152;28;20583;-61
2021/05/01 01:25:35;;;;;;;7.47;6.78;;;;;;;11.35;64.00;98663.50;5053786;28;20075;-60
2021/05/01 01:28:01;;;;;;;9.10;7.20;;;;;;;11.10;63.36;98623.16;5062837;28;20057;-60
2021/05/01 01:30:30;;;;;;;8.48;6.22;;;;;;;11.26;63.80;98661.78;5060611;28;20063;-59
2021/05/01 01:33:04;;;;;;;7.40;6.70;;;;;;;11.23;63.78;98656.72;5055328;28;20408;-58
2021/05/01 01:35:30;;;;;;;7.90;6.70;;;;;;;11.18;63.44;98662.56;5066287;28;20086;-59
2021/05/01 01:37:55;;;;;;;8.80;6.82;;;;;;;11.05;63.90;98658.44;5056723;28;20032;-59
2021/05/01 01:40:22;;;;;;;9.88;6.53;;;;;;;11.06;63.64;98660.09;5059243;28;20033;-58
2021/05/01 01:42:48;;;;;;;7.18;6.47;;;;;;;10.97;63.43;98653.00;5063461;28;20036;-58
2021/05/01 01:45:16;;;;;;;8.70;6.45;;;;;;;11.04;63.44;98656.75;5053376;28;20127;-60
2021/05/01 01:47:42;;;;;;;8.43;6.75;;;;;;;11.14;63.54;98677.25;5065460;28;20033;-61
2021/05/01 01:50:11;;;;;;;7.55;6.75;;;;;;;11.14;63.74;98683.44;5057987;28;20024;-59
2021/05/01 01:52:37;;;;;;;8.55;6.75;;;;;;;10.88;63.63;98640.56;5056843;28;20413;-61
2021/05/01 01:55:09;;;;;;;7.30;6.45;;;;;;;11.17;63.63;98695.69;5066044;28;20118;-58
2021/05/01 01:57:41;;;;;;;7.70;6.90;;;;;;;11.12;63.70;98695.31;5039086;28;20403;-60
2021/05/01 02:00:10;;;;;;;7.22;6.18;;;;;;;10.97;63.92;98676.25;5061287;28;20090;-55
2021/05/01 02:02:39;;;;;;;9.25;6.13;;;;;;;10.90;63.88;98679.56;5062139;28;20054;-58
2021/05/01 02:05:06;;;;;;;7.20;5.80;;;;;;;10.86;63.63;98685.41;5053634;28;20112;-55
2021/05/01 02:07:33;;;;;;;6.85;6.10;;;;;;;10.99;63.50;98696.56;5036307;28;20161;-60
2021/05/01 02:09:58;;;;;;;9.05;6.35;;;;;;;11.00;63.68;98705.44;5062061;28;20591;-57
2021/05/01 02:12:24;;;;;;;9.65;6.13;;;;;;;11.01;63.33;98718.66;5050745;28;20112;-59
2021/05/01 02:14:49;;;;;;;7.30;5.85;;;;;;;10.97;63.34;98719.97;5063528;28;20508;-59
2021/05/01 02:17:20;;;;;;;6.85;6.20;;;;;;;10.58;63.18;98658.69;5052327;28;20102;-59
2021/05/01 02:19:45;;;;;;;6.72;5.85;;;;;;;10.96;63.33;98714.75;5064266;28;20425;-58
2021/05/01 02:22:11;;;;;;;7.78;5.43;;;;;;;10.96;63.06;98733.50;5058171;28;20047;-55
2021/05/01 02:24:37;;;;;;;6.57;5.97;;;;;;;10.85;63.22;98715.81;5056319;28;20406;-53
2021/05/01 02:27:02;;;;;;;6.85;5.75;;;;;;;10.86;63.55;98726.41;5063771;28;20822;-57
2021/05/01 02:29:28;;;;;;;7.65;5.90;;;;;;;10.92;63.63;98732.97;5052450;28;20184;-56
2021/05/01 02:31:53;;;;;;;8.30;6.38;;;;;;;10.96;63.23;98750.44;5063088;28;20071;-55
2021/05/01 02:34:19;;;;;;;7.65;6.32;;;;;;;10.95;63.38;98750.56;5058539;28;20036;-56
2021/05/01 02:36:44;;;;;;;6.80;5.80;;;;;;;10.88;63.38;98747.69;5055553;28;20436;-59
2021/05/01 02:39:10;;;;;;;6.38;5.70;;;;;;;10.93;63.40;98761.44;5065997;28;20131;-60
2021/05/01 02:41:35;;;;;;;6.35;5.75;;;;;;;10.95;63.12;98766.63;5053058;28;20032;-57
2021/05/01 02:44:01;;;;;;;7.70;6.13;;;;;;;10.94;63.32;98759.59;5061577;28;20439;-59
2021/05/01 02:46:28;;;;;;;6.40;5.63;;;;;;;10.65;62.72;98721.34;5060186;28;20369;-56
2021/05/01 02:48:53;;;;;;;6.72;6.13;;;;;;;10.87;62.71;98749.50;5054243;28;20124;-56
2021/05/01 02:51:19;;;;;;;7.13;6.00;;;;;;;10.98;62.79;98758.31;5065258;28;20037;-55
2021/05/01 02:53:44;;;;;;;6.30;5.70;;;;;;;10.53;62.62;98695.78;5054105;28;20400;-59
2021/05/01 02:56:10;;;;;;;6.53;5.82;;;;;;;11.03;62.39;98788.97;5060887;28;20032;-53
2021/05/01 02:58:35;;;;;;;7.45;5.65;;;;;;;10.97;62.84;98792.28;5060628;28;20040;-59
2021/05/01 03:01:01;;;;;;;8.63;5.82;;;;;;;10.87;63.25;98780.81;5053469;28;20040;-58
2021/05/01 03:03:26;;;;;;;6.30;5.70;;;;;;;10.91;62.97;98800.94;5065307;28;20123;-59
2021/05/01 03:05:52;;;;;;;6.85;5.60;;;;;;;10.87;62.97;98811.09;5054732;28;20041;-59
2021/05/01 03:08:18;;;;;;;6.63;5.63;;;;;;;10.92;62.84;98810.66;5058634;28;20116;-58
2021/05/01 03:10:43;;;;;;;6.03;5.43;;;;;;;10.97;62.67;98810.16;5064301;28;20036;-61
2021/05/01 03:13:09;;;;;;;7.80;5.60;;;;;;;10.94;62.89;98803.31;5056178;28;20500;-60
2021/05/01 03:15:34;;;;;;;8.20;5.80;;;;;;;11.03;62.81;98818.44;5068610;28;20503;-60
2021/05/01 03:18:00;;;;;;;8.40;5.50;;;;;;;11.10;62.62;98824.03;5060053;28;20098;-58
2021/05/01 03:20:25;;;;;;;6.85;5.40;;;;;;;10.96;62.46;98804.00;5061732;28;20033;-54
2021/05/01 03:22:51;;;;;;;9.80;5.70;;;;;;;10.95;62.81;98810.34;5066622;28;20056;-55
2021/05/01 03:25:17;;;;;;;6.43;5.30;;;;;;;10.98;62.64;98818.06;5055813;28;20435;-57
2021/05/01 03:27:43;;;;;;;5.80;5.15;;;;;;;11.05;62.65;98835.22;5067474;28;20044;-62
2021/05/01 03:30:12;;;;;;;7.07;5.15;;;;;;;11.09;62.64;98824.19;5060983;28;20059;-56
2021/05/01 03:32:39;;;;;;;6.28;5.28;;;;;;;11.10;62.60;98826.72;5060217;28;20491;-57
2021/05/01 03:35:06;;;;;;;8.15;5.40;;;;;;;11.10;62.79;98837.44;5068518;28;20127;-56
2021/05/01 03:37:32;;;;;;;7.10;5.20;;;;;;;10.88;62.71;98801.22;5055608;28;20117;-52
2021/05/01 03:39:57;;;;;;;6.88;5.68;;;;;;;11.06;62.32;98842.25;5065417;28;20459;-53
2021/05/01 03:42:23;;;;;;;5.40;4.90;;;;;;;11.02;62.58;98840.03;5062569;28;20451;-57
2021/05/01 03:44:49;;;;;;;6.32;5.30;;;;;;;11.09;62.74;98861.69;5058214;28;20033;-57
2021/05/01 03:47:14;;;;;;;5.90;5.30;;;;;;;11.11;62.31;98865.09;5068369;28;20124;-57
2021/05/01 03:49:40;;;;;;;5.93;5.32;;;;;;;11.13;62.36;98868.44;5057001;28;20375;-58
2021/05/01 03:52:05;;;;;;;6.53;5.63;;;;;;;11.14;62.64;98864.78;5064237;28;20033;-58
2021/05/01 03:54:31;;;;;;;8.57;5.40;;;;;;;11.04;62.61;98860.31;5063507;28;20044;-60
2021/05/01 03:56:58;;;;;;;8.68;4.82;;;;;;;11.16;62.37;98868.97;5056879;28;20039;-57
2021/05/01 03:59:25;;;;;;;7.35;4.90;;;;;;;11.46;61.49;98887.53;5068335;28;20119;-60
2021/05/01 04:01:50;;;;;;;4.80;4.30;;;;;;;11.61;60.69;98888.69;5057667;28;20056;-59
2021/05/01 04:04:18;;;;;;;6.65;4.90;;;;;;;11.80;60.43;98902.91;5069401;28;20050;-61
2021/05/01 04:06:43;;;;;;;4.97;4.40;;;;;;;11.43;60.43;98839.59;5058435;28;20033;-61
2021/05/01 04:09:09;;;;;;;4.40;4.00;;;;;;;11.71;60.68;98903.84;5068953;28;20036;-60
2021/05/01 04:11:34;;;;;;;4.70;4.30;;;;;;;11.43;60.87;98864.53;5052945;28;20451;-62
2021/05/01 04:13:59;;;;;;;6.03;4.97;;;;;;;11.80;60.19;98921.69;5058910;28;20040;-60
2021/05/01 04:16:25;;;;;;;5.15;4.60;;;;;;;11.74;60.82;98920.47;5060494;28;20033;-57
2021/05/01 04:18:51;;;;;;;5.20;4.38;;;;;;;11.75;60.84;98926.66;5065610;28;20040;-58
2021/05/01 04:21:17;;;;;;;5.28;4.78;;;;;;;11.62;61.26;98906.47;5054493;28;20041;-62
2021/05/01 04:23:43;;;;;;;5.28;4.78;;;;;;;11.69;61.55;98927.28;5066285;28;20107;-63
2021/05/01 04:26:09;;;;;;;5.40;4.78;;;;;;;11.62;61.64;98925.22;5060038;28;20040;-55
2021/05/01 04:28:35;;;;;;;9.05;5.25;;;;;;;11.56;61.75;98923.13;5059031;28;20037;-61
2021/05/01 04:31:01;;;;;;;5.88;5.13;;;;;;;11.53;62.08;98938.69;5066520;28;20079;-60
2021/05/01 04:33:28;;;;;;;3.33;3.03;;;;;;;11.30;61.64;98941.81;5054363;28;20448;-60
2021/05/01 04:35:53;;;;;;;3.15;2.50;;;;;;;11.01;61.95;98957.03;5064624;28;20128;-59
2021/05/01 04:38:19;;;;;;;2.42;2.25;;;;;;;10.61;62.43;98952.84;5060495;28;20119;-60
2021/05/01 04:40:44;;;;;;;2.45;2.25;;;;;;;10.47;63.13;98968.38;5057604;28;20381;-61
2021/05/01 04:43:11;;;;;;;4.03;2.65;;;;;;;10.30;63.41;98974.41;5067692;28;20051;-61
2021/05/01 04:45:38;;;;;;;3.58;2.30;;;;;;;10.13;63.86;98975.97;5054991;28;20039;-58
2021/05/01 04:48:06;;;;;;;1.95;1.85;;;;;;;10.02;64.09;98982.31;5063086;28;20060;-58
2021/05/01 04:50:31;;;;;;;3.47;2.00;;;;;;;9.98;63.75;98980.91;5061858;28;20039;-59
2021/05/01 04:52:57;;;;;;;2.42;2.10;;;;;;;9.99;64.12;98993.31;5054812;28;20029;-61
2021/05/01 04:55:25;;;;;;;1.95;1.85;;;;;;;9.99;63.49;98998.66;5067173;28;20032;-60
2021/05/01 04:57:51;;;;;;;2.40;2.20;;;;;;;10.09;63.15;98987.97;5056805;28;20036;-60
2021/05/01 05:00:17;;;;;;;2.00;1.75;;;;;;;10.32;63.12;99015.25;5060436;28;20399;-60
2021/05/01 05:02:44;;;;;;;1.80;1.70;;;;;;;11.09;60.86;99009.88;5061678;28;20093;-64
2021/05/01 05:05:10;;;;;;;2.30;2.10;;;;;;;12.83;56.43;99005.34;5054106;28;20045;-61
2021/05/01 05:07:37;;;;;;;2.22;1.50;;;;;;;14.07;52.66;99003.09;5064999;28;20520;-58
2021/05/01 05:10:03;;;;;;;1.60;1.50;;;;;;;14.25;50.77;99004.81;5057527;28;20028;-59
2021/05/01 05:12:30;;;;;;;1.85;1.60;;;;;;;14.19;51.06;99007.13;5058506;28;20033;-58
2021/05/01 05:14:55;;;;;;;1.70;1.40;;;;;;;14.42;49.80;99006.47;5065297;28;20024;-58
2021/05/01 05:17:21;;;;;;;1.65;1.55;;;;;;;14.63;48.82;99003.28;5053688;28;20040;-59
2021/05/01 05:19:46;;;;;;;1.52;1.40;;;;;;;14.83;48.10;99023.63;5064869;28;20079;-60
2021/05/01 05:22:11;;;;;;;1.42;1.33;;;;;;;14.88;46.97;99013.19;5059542;28;20047;-61
2021/05/01 05:24:38;;;;;;;1.30;1.20;;;;;;;15.25;45.88;99032.44;5057308;28;20064;-58
2021/05/01 05:27:04;;;;;;;1.35;1.25;;;;;;;15.42;44.26;98990.91;5066277;28;20043;-59
2021/05/01 05:29:30;;;;;;;1.10;1.00;;;;;;;16.62;41.72;99023.88;5053246;28;20442;-60
2021/05/01 05:31:56;;;;;;;1.20;1.10;;;;;;;17.09;40.49;99026.47;5063275;28;20087;-60
2021/05/01 05:34:22;;;;;;;1.20;1.20;;;;;;;17.37;39.80;99044.75;5058412;28;20047;-57
2021/05/01 05:36:48;;;;;;;1.48;1.30;;;;;;;17.87;38.83;99042.25;5056132;28;20085;-59
2021/05/01 05:39:15;;;;;;;1.20;1.10;;;;;;;17.65;38.62;99053.03;5066278;28;20446;-62
2021/05/01 05:41:41;;;;;;;1.83;1.10;;;;;;;17.39;38.74;99052.69;5054471;28;20507;-61
2021/05/01 05:44:06;;;;;;;1.10;1.00;;;;;;;17.86;38.20;99048.72;5061884;28;20071;-59
2021/05/01 05:46:31;;;;;;;1.38;1.13;;;;;;;18.27;36.53;99027.47;5061151;28;20041;-61
2021/05/01 05:48:57;;;;;;;1.30;1.20;;;;;;;18.26;36.18;99042.06;5054640;28;20029;-59
2021/05/01 05:51:22;;;;;;;1.40;1.20;;;;;;;18.24;36.09;99077.47;5065830;28;20042;-59
2021/05/01 05:53:48;;;;;;;1.23;1.13;;;;;;;18.62;34.95;99088.06;5055280;28;20557;-60
2021/05/01 05:56:15;;;;;;;1.00;1.00;;;;;;;19.11;33.23;99047.56;5060768;28;20140;-61
2021/05/01 05:58:44;;;;;;;1.33;1.23;;;;;;;19.93;31.68;99096.69;5061427;28;20091;-58
2021/05/01 06:01:10;;;;;;;1.92;1.70;;;;;;;20.74;30.72;99096.88;5053116;28;20123;-60
2021/05/01 06:03:37;;;;;;;1.73;1.48;;;;;;;21.82;28.63;99107.63;5065616;28;20033;-58
2021/05/01 06:06:11;;;;;;;1.80;1.70;;;;;;;24.35;25.60;99111.34;5057144;28;20263;-61
2021/05/01 06:08:38;;;;;;;1.80;1.70;;;;;;;25.42;24.39;99105.25;5056598;28;20033;-60
2021/05/01 06:11:04;;;;;;;1.90;1.48;;;;;;;27.34;22.08;99113.25;5065697;28;20040;-59
2021/05/01 06:13:32;;;;;;;1.90;1.80;;;;;;;28.66;20.06;99076.84;5052834;28;20029;-59
2021/05/01 06:16:00;;;;;;;1.90;1.80;;;;;;;30.12;18.13;99134.59;5060081;28;20037;-60
2021/05/01 06:18:27;;;;;;;2.03;1.90;;;;;;;29.62;18.61;99143.19;5058692;28;20041;-59
2021/05/01 06:20:54;;;;;;;2.15;1.95;;;;;;;30.29;17.92;99128.03;5050661;28;20040;-61
2021/05/01 06:23:21;;;;;;;2.00;1.90;;;;;;;30.01;17.58;99133.75;5065663;28;20059;-60
2021/05/01 06:25:48;;;;;;;2.15;2.05;;;;;;;27.98;19.35;99138.59;5054558;28;20044;-60
2021/05/01 06:28:14;;;;;;;2.15;2.05;;;;;;;27.15;20.14;99142.09;5060591;28;20045;-62
2021/05/01 06:30:42;;;;;;;2.33;2.13;;;;;;;26.91;19.62;99148.59;5062252;28;20737;-62
2021/05/01 06:33:14;;;;;;;2.40;2.20;;;;;;;28.06;18.41;99153.84;5052979;28;20065;-61
2021/05/01 06:35:41;;;;;;;2.35;1.92;;;;;;;29.37;16.98;99155.69;5031874;28;20030;-58
2021/05/01 06:38:07;;;;;;;2.03;1.70;;;;;;;30.79;15.31;99169.88;5045887;28;20044;-61
2021/05/01 06:40:37;;;;;;;2.30;1.60;;;;;;;32.26;13.56;99161.06;5057343;28;20844;-62
2021/05/01 06:43:35;;;;;;;2.83;2.05;;;;;;;34.22;12.43;99169.69;5065004;28;20951;-62
2021/05/01 06:46:03;;;;;;;2.63;2.42;;;;;;;34.98;11.43;99168.88;5053764;28;20041;-61
2021/05/01 06:48:32;;;;;;;2.28;1.70;;;;;;;36.18;9.77;99154.47;5060650;28;20128;-60
2021/05/01 06:51:00;;;;;;;1.67;1.40;;;;;;;36.20;9.56;99135.47;5068237;28;20040;-61
2021/05/01 06:53:33;;;;;;;1.98;1.60;;;;;;;37.14;9.17;99191.91;5056529;28;20489;-59
2021/05/01 06:56:04;;;;;;;1.75;1.40;;;;;;;37.20;8.50;99187.81;5065978;28;20036;-59
2021/05/01 06:58:31;;;;;;;2.25;1.70;;;;;;;37.10;8.46;99185.28;5064078;28;20527;-60
2021/05/01 07:00:59;;;;;;;1.73;1.63;;;;;;;37.62;8.35;99182.00;5058132;28;20127;-60
2021/05/01 07:03:27;;;;;;;1.73;1.63;;;;;;;37.72;8.15;99189.28;5069002;28;20086;-60
2021/05/01 07:05:56;;;;;;;2.33;1.60;;;;;;;38.09;8.01;99189.91;5058994;28;20055;-59
2021/05/01 07:08:34;;;;;;;2.50;1.70;;;;;;;39.24;7.54;99199.25;5060462;28;20068;-60
2021/05/01 07:11:10;;;;;;;1.63;1.52;;;;;;;40.01;5.82;99214.50;5069087;28;20085;-58
2021/05/01 07:13:48;;;;;;;1.77;1.67;;;;;;;40.31;6.18;99214.56;5043876;28;20032;-61
2021/05/01 07:16:14;;;;;;;1.50;1.40;;;;;;;39.79;6.78;99219.22;5063398;28;20036;-66
2021/05/01 07:18:44;;;;;;;1.63;1.52;;;;;;;40.05;6.44;99209.91;5065716;28;20123;-60
2021/05/01 07:21:11;;;;;;;1.77;1.50;;;;;;;40.24;6.48;99195.44;5056253;28;20048;-59
2021/05/01 07:23:42;;;;;;;1.98;1.77;;;;;;;39.85;6.54;99201.09;5068146;28;20139;-60
2021/05/01 07:26:11;;;;;;;2.85;2.28;;;;;;;39.50;6.75;99219.97;5060565;28;20474;-59
2021/05/01 07:28:40;;;;;;;2.75;2.00;;;;;;;38.55;7.06;99178.50;5059881;28;20058;-61
2021/05/01 07:31:24;;;;;;;2.28;1.80;;;;;;;38.60;7.13;99223.13;5069388;28;20060;-58
2021/05/01 07:33:56;;;;;;;2.22;1.70;;;;;;;36.04;8.47;99228.84;5057533;28;20479;-60
2021/05/01 07:36:44;;;;;;;2.10;1.75;;;;;;;35.08;8.63;99233.84;5061272;28;20412;-60
2021/05/01 07:39:11;;;;;;;1.85;1.67;;;;;;;35.87;8.19;99238.59;5067298;28;20036;-59
2021/05/01 07:41:42;;;;;;;1.70;1.58;;;;;;;37.84;6.94;99245.34;5055912;28;20032;-59
2021/05/01 07:44:09;;;;;;;1.75;1.40;;;;;;;38.68;6.81;99238.25;5063417;28;20381;-60
2021/05/01 07:46:37;;;;;;;3.15;1.58;;;;;;;39.29;6.02;99229.03;5063625;28;20048;-61
2021/05/01 07:49:05;;;;;;;2.20;1.50;;;;;;;39.94;5.63;99236.66;5054888;28;20436;-60
2021/05/01 07:51:34;;;;;;;3.13;1.60;;;;;;;40.37;5.59;99241.25;5067170;28;20129;-59
2021/05/01 07:54:00;;;;;;;2.00;1.70;;;;;;;40.30;5.64;99241.78;5058864;28;20196;-59
2021/05/01 07:56:25;;;;;;;3.05;1.92;;;;;;;39.35;4.94;99233.31;5057862;28;20068;-60
2021/05/01 07:58:51;;;;;;;1.80;1.25;;;;;;;38.62;5.05;99248.78;5061706;28;20125;-61
2021/05/01 08:01:16;;;;;;;2.38;1.23;;;;;;;37.70;5.86;99251.03;5050511;28;20033;-59
2021/05/01 08:03:42;;;;;;;1.90;1.40;;;;;;;36.27;6.12;99240.09;5065147;28;20068;-60
2021/05/01 08:06:08;;;;;;;1.80;1.20;;;;;;;35.22;6.28;99215.25;5057920;28;20051;-64
2021/05/01 08:08:34;;;;;;;2.22;1.30;;;;;;;33.91;7.03;99248.59;5056115;28;20086;-60
2021/05/01 08:11:09;;;;;;;2.72;1.35;;;;;;;31.33;8.92;99250.66;5067510;28;20044;-60
2021/05/01 08:13:35;;;;;;;1.40;1.27;;;;;;;28.71;10.72;99225.66;5055256;28;20498;-58
2021/05/01 08:16:01;;;;;;;2.33;1.48;;;;;;;26.75;12.32;99262.75;5064116;28;20148;-58
2021/05/01 08:18:27;;;;;;;2.65;1.40;;;;;;;24.80;13.76;99277.09;5062712;28;20349;-59
2021/05/01 08:20:52;;;;;;;2.63;1.30;;;;;;;23.01;15.45;99281.00;5056901;28;20041;-58
2021/05/01 08:23:17;;;;;;;1.10;1.00;;;;;;;21.18;16.31;99285.09;5056595;28;20053;-58
2021/05/01 08:25:43;;;;;;;1.33;1.23;;;;;;;19.49;16.99;99288.78;5050472;28;20045;-60
2021/05/01 08:28:09;;;;;;;2.30;1.27;;;;;;;18.58;18.57;99292.78;5059842;28;20044;-59
2021/05/01 08:30:34;;;;;;;2.15;1.40;;;;;;;17.94;19.08;99280.63;5057948;28;20040;-61
2021/05/01 08:33:00;;;;;;;1.73;1.17;;;;;;;17.39;19.48;99293.50;5066874;28;20068;-57
2021/05/01 08:35:25;;;;;;;1.58;1.20;;;;;;;16.79;20.36;99267.84;5054286;28;20033;-58
2021/05/01 08:37:51;;;;;;;2.00;1.27;;;;;;;16.45;21.63;99298.75;5064769;28;20117;-56
2021/05/01 08:40:31;;;;;;;2.42;1.48;;;;;;;15.97;22.86;99281.72;5062096;28;20040;-60
2021/05/01 08:43:07;;;;;;;2.47;1.35;;;;;;;15.85;22.31;99297.38;5054149;28;20033;-61
2021/05/01 08:45:33;;;;;;;1.80;1.25;;;;;;;15.54;23.29;99298.06;5037898;28;20067;-57
2021/05/01 08:48:00;;;;;;;6.20;1.35;;;;;;;15.66;24.71;99304.81;5063967;28;20412;-59
2021/05/01 08:50:26;;;;;;;2.80;1.70;;;;;;;15.58;24.11;99297.56;5061388;28;20047;-59
2021/05/01 08:52:56;;;;;;;1.73;1.50;;;;;;;15.37;24.13;99295.41;5056670;28;20045;-56
2021/05/01 08:55:26;;;;;;;3.63;1.45;;;;;;;15.11;26.34;99300.91;5067294;28;20123;-55
2021/05/01 08:57:52;;;;;;;2.55;1.42;;;;;;;15.11;24.97;99315.25;5056906;28;20400;-58
2021/05/01 09:00:18;;;;;;;3.38;1.67;;;;;;;15.11;24.19;99319.78;5061036;28;20392;-57
2021/05/01 09:02:44;;;;;;;2.90;1.30;;;;;;;14.71;24.87;99273.72;5063763;28;20133;-57
2021/05/01 09:05:11;;;;;;;3.13;1.40;;;;;;;14.95;24.53;99312.53;5054505;28;20504;-58
2021/05/01 09:07:38;;;;;;;2.80;1.20;;;;;;;14.95;23.53;99313.38;5065897;28;20516;-56
2021/05/01 09:10:06;;;;;;;2.90;1.40;;;;;;;14.99;24.17;99325.50;5058463;28;20033;-59
2021/05/01 09:12:44;;;;;;;2.05;1.20;;;;;;;15.06;23.97;99315.75;5058963;28;20029;-55
2021/05/01 09:15:18;;;;;;;1.20;1.10;;;;;;;15.07;23.08;99328.22;5067809;28;20118;-55
2021/05/01 09:17:46;;;;;;;1.58;1.33;;;;;;;15.12;24.06;99327.72;5055615;28;20111;-58
2021/05/01 09:20:15;;;;;;;1.30;1.20;;;;;;;15.14;23.95;99343.72;5062083;28;20035;-56
2021/05/01 09:22:53;;;;;;;2.53;1.30;;;;;;;15.22;24.19;99338.38;5063817;28;20049;-61
2021/05/01 09:25:19;;;;;;;1.92;1.27;;;;;;;15.23;23.63;99341.88;5053890;28;20052;-58
2021/05/01 09:27:58;;;;;;;3.63;1.02;;;;;;;15.25;23.51;99326.38;5065123;28;20041;-58
2021/05/01 09:30:27;;;;;;;1.95;1.20;;;;;;;15.15;22.90;99340.88;5060280;28;20393;-58
2021/05/01 09:33:23;;;;;;;2.22;1.25;;;;;;;15.08;23.13;99329.06;5054710;28;20519;-56
2021/05/01 09:36:11;;;;;;;2.17;1.40;;;;;;;15.17;23.27;99346.09;5041683;28;20085;-57
2021/05/01 09:38:49;;;;;;;2.78;1.10;;;;;;;15.16;23.15;99353.34;5057677;28;20037;-61
2021/05/01 09:41:23;;;;;;;2.28;1.90;;;;;;;15.05;22.64;99335.63;5066348;28;20032;-59
2021/05/01 09:44:08;;;;;;;4.13;1.30;;;;;;;15.02;22.81;99346.75;5055438;28;20055;-61
2021/05/01 09:46:42;;;;;;;3.13;1.13;;;;;;;15.14;22.78;99349.97;5057855;28;20052;-58
2021/05/01 09:49:23;;;;;;;2.95;1.30;;;;;;;15.12;22.32;99361.94;5066098;28;20036;-62
2021/05/01 09:51:55;;;;;;;1.10;1.00;;;;;;;14.71;22.28;99339.25;5040731;28;20093;-59
2021/05/01 09:54:25;;;;;;;4.00;1.08;;;;;;;15.01;22.11;99376.56;5059821;28;20037;-58
2021/05/01 09:56:52;;;;;;;1.92;1.50;;;;;;;14.69;22.25;99327.72;5064070;28;20094;-59
2021/05/01 09:59:38;;;;;;;1.73;1.20;;;;;;;15.08;22.45;99361.44;5052864;28;20039;-58
2021/05/01 10:02:04;;;;;;;2.75;1.40;;;;;;;14.82;22.08;99345.34;5061884;28;20067;-61
2021/05/01 10:04:29;;;;;;;1.88;1.30;;;;;;;14.85;22.02;99377.34;5059415;28;20040;-58
2021/05/01 10:07:07;;;;;;;2.47;1.05;;;;;;;14.76;22.52;99371.06;5054990;28;20029;-61
2021/05/01 10:09:38;;;;;;;1.67;1.23;;;;;;;14.74;22.73;99387.41;5036689;28;20033;-58
2021/05/01 10:12:07;;;;;;;1.70;1.30;;;;;;;14.75;22.78;99385.56;5061657;28;20082;-58
2021/05/01 10:14:36;;;;;;;3.08;1.20;;;;;;;14.81;23.04;99386.78;5061054;28;20032;-61
2021/05/01 10:17:02;;;;;;;4.20;1.58;;;;;;;14.61;22.47;99362.72;5053186;28;20037;-60
2021/05/01 10:19:56;;;;;;;1.27;1.17;;;;;;;14.81;21.96;99379.50;5065916;28;20037;-60
2021/05/01 10:22:26;;;;;;;1.30;1.20;;;;;;;14.75;22.01;99381.03;5059333;28;20502;-60
2021/05/01 10:24:52;;;;;;;3.70;1.40;;;;;;;14.64;22.15;99383.97;5055041;28;20048;-61
2021/05/01 10:27:19;;;;;;;1.75;1.40;;;;;;;14.65;22.38;99393.72;5066323;28;20037;-57
2021/05/01 10:30:01;;;;;;;3.05;1.30;;;;;;;14.74;22.66;99390.13;5054448;28;20037;-55
2021/05/01 10:32:33;;;;;;;3.55;1.50;;;;;;;14.69;22.80;99362.75;5058458;28;20043;-56
2021/05/01 10:35:00;;;;;;;1.88;1.30;;;;;;;14.76;23.09;99371.06;5064834;28;20032;-60
2021/05/01 10:37:30;;;;;;;2.90;1.48;;;;;;;14.86;22.55;99379.91;5052854;28;20227;-57
2021/05/01 10:39:57;;;;;;;2.08;1.40;;;;;;;14.99;22.69;99378.56;5062982;28;20067;-55
2021/05/01 10:42:29;;;;;;;2.33;1.38;;;;;;;15.03;22.90;99380.78;5060836;28;20037;-60
2021/05/01 10:45:00;;;;;;;4.00;1.85;;;;;;;15.12;23.10;99392.44;5054250;28;20106;-58
2021/05/01 10:47:26;;;;;;;3.55;1.63;;;;;;;15.09;23.06;99384.69;5065667;28;20535;-57
2021/05/01 10:49:55;;;;;;;2.15;1.27;;;;;;;15.13;23.21;99382.47;5055747;28;20036;-54
2021/05/01 10:52:22;;;;;;;2.17;1.30;;;;;;;15.23;22.76;99396.69;5059284;28;20036;-61
2021/05/01 10:55:01;;;;;;;2.17;1.23;;;;;;;15.44;22.10;99398.06;5061766;28;20035;-59
2021/05/01 10:57:27;;;;;;;3.58;1.20;;;;;;;15.26;21.93;99384.72;5052998;28;20037;-56
2021/05/01 11:00:04;;;;;;;2.65;1.42;;;;;;;15.39;22.11;99405.81;5063142;28;20032;-58
2021/05/01 11:02:42;;;;;;;2.13;1.27;;;;;;;15.33;22.04;99400.06;5060723;28;20029;-58
2021/05/01 11:05:14;;;;;;;2.13;1.20;;;;;;;15.31;21.75;99412.00;5052661;28;20037;-59
2021/05/01 11:08:03;;;;;;;2.17;1.05;;;;;;;15.27;21.80;99403.44;5065260;28;20041;-58
2021/05/01 11:10:29;;;;;;;2.17;1.23;;;;;;;15.26;21.80;99411.66;5057403;28;20427;-57
2021/05/01 11:12:56;;;;;;;2.92;1.48;;;;;;;15.21;21.87;99421.09;5054498;28;20036;-56
2021/05/01 11:15:23;;;;;;;1.65;1.20;;;;;;;15.18;22.02;99423.28;5065849;28;20123;-60
2021/05/01 11:18:07;;;;;;;2.00;1.30;;;;;;;15.18;21.79;99410.66;5055392;28;20024;-54
2021/05/01 11:20:58;;;;;;;2.40;1.40;;;;;;;15.19;21.67;99422.25;5054954;28;20044;-56
2021/05/01 11:23:28;;;;;;;4.05;1.30;;;;;;;15.09;21.74;99429.66;5065374;28;20052;-56
2021/05/01 11:25:56;;;;;;;3.00;1.33;;;;;;;14.97;21.57;99413.78;5055477;28;20037;-57
2021/05/01 11:28:25;;;;;;;1.73;1.30;;;;;;;15.09;21.38;99426.97;5058734;28;20056;-58
2021/05/01 11:30:53;;;;;;;7.38;1.25;;;;;;;14.59;21.64;99357.53;5064721;28;20112;-60
2021/05/01 11:33:20;;;;;;;4.40;1.52;;;;;;;15.02;21.85;99438.41;5038404;28;20086;-57
2021/05/01 11:35:48;;;;;;;4.90;1.40;;;;;;;15.01;21.93;99439.41;5067694;28;20029;-57
2021/05/01 11:38:22;;;;;;;5.00;1.48;;;;;;;14.95;21.75;99434.69;5062079;28;20043;-61
2021/05/01 11:40:52;;;;;;;2.17;1.40;;;;;;;14.73;21.70;99418.06;5058682;28;20393;-54